• Join FlightAware (Why Join?)
  • Login
  • US Flag 
11:46PM EDT


 

Airport Tracker/Info


-or-


 

Live Flight TrackerFlight Track Log ✈ AAL6 ✈ 21-Jun-2013 ✈ PHOG / OGG - KDFW

Flight Track Log - Related Links

Times and Time Zones

All times are in EDT time to prevent confusion due to time zone crossing. See the AAL6 flight status page for this flight to view local times or setup timezone preferences in your user account.

Time Position Orientation Groundspeed Altitude Reporting Facility
EDT Latitude Longitude Course Direction KTS MPH feet Rate Location/Type
12:33AM 20.9000 -156.4167 32° Northeast 160 184 1,100  Level Honolulu Center
12:34AM 20.9500 -156.3833 32° Northeast 200 230 2,800 2,280 Climbing Honolulu Center
12:35AM 20.9833 -156.3167 62° Northeast 240 276 5,700 2,760 Climbing Honolulu Center
12:36AM 20.9833 -156.2500 90° East 260 299 8,400 2,400 Climbing Honolulu Center
12:37AM 21.0167 -156.1667 67° East 290 334 10,600 2,220 Climbing Honolulu Center
12:38AM 21.0333 -156.0667 80° East 340 391 12,900 2,460 Climbing Honolulu Center
12:39AM 21.0500 -155.9667 80° East 360 414 15,600 2,400 Climbing Honolulu Center
12:40AM 21.0833 -155.8833 67° East 370 426 17,700 1,920 Climbing Honolulu Center
12:41AM 21.1000 -155.7667 81° East 420 483 19,500 1,860 Climbing Honolulu Center
12:42AM 21.1333 -155.6333 75° East 440 506 21,500 2,100 Climbing Honolulu Center
12:43AM 21.1667 -155.5000 75° East 450 518 23,800 2,040 Climbing Honolulu Center
12:44AM 21.2000 -155.3667 75° East 470 541 25,600 1,800 Climbing Honolulu Center
12:45AM 21.2500 -155.2333 68° East 480 552 27,400 1,620 Climbing Honolulu Center
12:46AM 21.3000 -155.1000 68° East 500 575 28,900 1,500 Climbing Honolulu Center
12:47AM 21.3333 -154.9500 77° East 510 587 30,500 1,680 Climbing Honolulu Center
12:48AM 21.3833 -154.8167 68° East 510 587 32,300 1,680 Climbing Honolulu Center
12:49AM 21.4333 -154.6667 70° East 500 575 33,900 1,500 Climbing Honolulu Center
12:50AM 21.4833 -154.5333 68° East 500 575 35,300 1,020 Climbing Honolulu Center
12:51AM 21.5333 -154.3833 70° East 500 575 36,000 300 Climbing Honolulu Center
12:52AM 21.5833 -154.2500 68° East 500 575 36,000  Level Honolulu Center
12:53AM 21.6333 -154.0833 72° East 490 564 36,000  Level Honolulu Center
12:54AM 21.6667 -153.9667 73° East 500 575 36,000  Level Honolulu Center
12:55AM 21.7167 -153.8333 68° East 490 564 36,000  Level Honolulu Center
12:56AM 21.7667 -153.7000 68° East 480 552 36,000  Level Honolulu Center
12:57AM 21.8000 -153.5667 75° East 480 552 36,000  Level Honolulu Center
12:58AM 21.8500 -153.4333 68° East 490 564 36,000  Level Honolulu Center
12:59AM 21.9000 -153.2833 70° East 490 564 36,000  Level Honolulu Center
01:01AM 21.9470 -153.1313 72° East  Level FlightAware Approximate
01:08AM 22.2476 -152.1464 72° East  Level FlightAware Approximate
01:09AM 22.2901 -152.0053 72° East  Level FlightAware Approximate
01:10AM 22.3409 -151.8680 62° Northeast  Level FlightAware Approximate
01:11AM 22.4054 -151.7370 62° Northeast  Level FlightAware Approximate
01:12AM 22.4698 -151.6058 62° Northeast  Level FlightAware Approximate
01:13AM 22.5341 -151.4746 62° Northeast  Level FlightAware Approximate
01:14AM 22.5983 -151.3432 62° Northeast  Level FlightAware Approximate
01:15AM 22.6624 -151.2117 62° Northeast  Level FlightAware Approximate
01:16AM 22.7263 -151.0800 62° Northeast  Level FlightAware Approximate
01:17AM 22.7897 -150.9480 62° Northeast  Level FlightAware Approximate
01:18AM 22.8530 -150.8159 63° Northeast  Level FlightAware Approximate
01:19AM 22.9162 -150.6837 63° Northeast  Level FlightAware Approximate
01:20AM 22.9793 -150.5513 63° Northeast  Level FlightAware Approximate
01:21AM 23.0423 -150.4188 63° Northeast  Level FlightAware Approximate
01:22AM 23.1052 -150.2862 63° Northeast  Level FlightAware Approximate
01:23AM 23.1679 -150.1534 63° Northeast  Level FlightAware Approximate
01:23AM 22.3500 -151.8833 62° Northeast 500 575 36,000  Level Oakland Oceanic (ODAPS)
01:24AM 23.2306 -150.0206 63° Northeast  Level FlightAware Approximate
01:25AM 23.2931 -149.8876 63° Northeast  Level FlightAware Approximate
01:26AM 23.3556 -149.7545 63° Northeast  Level FlightAware Approximate
01:27AM 23.4179 -149.6212 63° Northeast  Level FlightAware Approximate
01:28AM 23.4802 -149.4879 63° Northeast  Level FlightAware Approximate
01:29AM 23.5429 -149.3548 63° Northeast  Level FlightAware Approximate
01:30AM 23.6929 -149.0742 63° Northeast 500 575 36,000  Level FlightAware Transoceanic
01:31AM 23.7556 -148.9390 63° Northeast 500 575 36,000  Level FlightAware Transoceanic
01:32AM 23.8181 -148.8037 63° Northeast 500 575 36,000  Level FlightAware Transoceanic
01:33AM 23.8806 -148.6683 63° Northeast 500 575 36,000  Level FlightAware Transoceanic
01:34AM 23.9429 -148.5327 63° Northeast 500 575 36,000  Level FlightAware Transoceanic
01:35AM 24.0051 -148.3970 63° Northeast 500 575 36,000  Level FlightAware Transoceanic
01:36AM 24.0672 -148.2612 63° Northeast 500 575 36,000  Level FlightAware Transoceanic
01:37AM 24.1292 -148.1252 63° Northeast 500 575 36,000  Level FlightAware Transoceanic
01:38AM 24.1911 -147.9891 64° Northeast 500 575 36,000  Level FlightAware Transoceanic
01:39AM 24.2528 -147.8529 64° Northeast 500 575 36,000  Level FlightAware Transoceanic
01:40AM 24.3144 -147.7166 64° Northeast 500 575 36,000  Level FlightAware Transoceanic
01:41AM 24.3759 -147.5801 64° Northeast 500 575 36,000  Level FlightAware Transoceanic
01:42AM 24.4373 -147.4434 64° Northeast 500 575 36,000  Level FlightAware Transoceanic
01:43AM 24.4985 -147.3067 64° Northeast 500 575 36,000  Level FlightAware Transoceanic
01:44AM 24.5596 -147.1698 64° Northeast 500 575 36,000  Level FlightAware Transoceanic
01:45AM 24.6206 -147.0328 64° Northeast 500 575 36,000  Level FlightAware Transoceanic
01:46AM 24.6815 -146.8956 64° Northeast 500 575 36,000  Level FlightAware Transoceanic
01:47AM 24.7423 -146.7583 64° Northeast 500 575 36,000  Level FlightAware Transoceanic
01:48AM 24.8029 -146.6209 64° Northeast 500 575 36,000  Level FlightAware Transoceanic
01:49AM 24.8634 -146.4834 64° Northeast 500 575 36,000  Level FlightAware Transoceanic
01:50AM 24.9238 -146.3457 64° Northeast 500 575 36,000  Level FlightAware Transoceanic
01:51AM 24.9840 -146.2078 64° Northeast 500 575 36,000  Level FlightAware Transoceanic
01:52AM 25.0441 -146.0699 64° Northeast 500 575 36,000  Level FlightAware Transoceanic
01:53AM 25.1041 -145.9318 64° Northeast 500 575 36,000  Level FlightAware Transoceanic
01:54AM 25.1640 -145.7935 64° Northeast 500 575 36,000  Level FlightAware Transoceanic
01:55AM 25.2237 -145.6552 65° Northeast 500 575 36,000  Level FlightAware Transoceanic
01:56AM 25.2833 -145.5167 65° Northeast 500 575 36,000  Level FlightAware Transoceanic
01:57AM 25.3425 -145.3780 65° Northeast 500 575 36,000  Level FlightAware Transoceanic
01:58AM 25.4016 -145.2392 65° Northeast 500 575 36,000  Level FlightAware Transoceanic
01:59AM 25.4605 -145.1003 65° Northeast 500 575 36,000  Level FlightAware Transoceanic
02:00AM 25.5193 -144.9612 65° Northeast 500 575 36,000  Level FlightAware Transoceanic
02:01AM 25.5779 -144.8220 65° Northeast 500 575 36,000  Level FlightAware Transoceanic
02:02AM 25.6365 -144.6826 65° Northeast 500 575 36,000  Level FlightAware Transoceanic
02:02AM 25.2833 -145.5167 65° Northeast 521 600 36,000  Level Oakland Oceanic (ODAPS)
02:03AM 25.6949 -144.5431 65° Northeast 500 575 36,000  Level FlightAware Transoceanic
02:04AM 25.7531 -144.4035 65° Northeast 500 575 36,000  Level FlightAware Transoceanic
02:05AM 25.8113 -144.2637 65° Northeast 500 575 36,000  Level FlightAware Transoceanic
02:06AM 25.8692 -144.1239 65° Northeast 500 575 36,000  Level FlightAware Transoceanic
02:07AM 25.9271 -143.9838 65° Northeast 500 575 36,000  Level FlightAware Transoceanic
02:08AM 26.0156 -143.7688 65° Northeast 521 600 36,000  Level FlightAware Transoceanic
02:09AM 26.0756 -143.6222 66° East 521 600 36,000  Level FlightAware Transoceanic
02:10AM 26.1356 -143.4754 66° East 521 600 36,000  Level FlightAware Transoceanic
02:11AM 26.1953 -143.3285 66° East 521 600 36,000  Level FlightAware Transoceanic
02:12AM 26.2550 -143.1814 66° East 521 600 36,000  Level FlightAware Transoceanic
02:13AM 26.3144 -143.0342 66° East 521 600 36,000  Level FlightAware Transoceanic
02:14AM 26.3738 -142.8868 66° East 521 600 36,000  Level FlightAware Transoceanic
02:15AM 26.4329 -142.7393 66° East 521 600 36,000  Level FlightAware Transoceanic
02:16AM 26.4920 -142.5916 66° East 521 600 36,000  Level FlightAware Transoceanic
02:17AM 26.5508 -142.4438 66° East 521 600 36,000  Level FlightAware Transoceanic
02:18AM 26.6096 -142.2958 66° East 521 600 36,000  Level FlightAware Transoceanic
02:19AM 26.6681 -142.1477 66° East 521 600 36,000  Level FlightAware Transoceanic
02:20AM 26.7265 -141.9994 66° East 521 600 36,000  Level FlightAware Transoceanic
02:21AM 26.7848 -141.8509 66° East 521 600 36,000  Level FlightAware Transoceanic
02:22AM 26.8429 -141.7023 66° East 521 600 36,000  Level FlightAware Transoceanic
02:23AM 26.9008 -141.5536 66° East 521 600 36,000  Level FlightAware Transoceanic
02:24AM 26.9586 -141.4047 67° East 521 600 36,000  Level FlightAware Transoceanic
02:25AM 27.0163 -141.2556 67° East 521 600 36,000  Level FlightAware Transoceanic
02:26AM 27.0737 -141.1064 67° East 521 600 36,000  Level FlightAware Transoceanic
02:27AM 27.1311 -140.9571 67° East 521 600 36,000  Level FlightAware Transoceanic
02:28AM 27.1882 -140.8076 67° East 521 600 36,000  Level FlightAware Transoceanic
02:29AM 27.2452 -140.6579 67° East 521 600 36,000  Level FlightAware Transoceanic
02:30AM 27.3021 -140.5081 67° East 521 600 36,000  Level FlightAware Transoceanic
02:31AM 27.3587 -140.3581 67° East 521 600 36,000  Level FlightAware Transoceanic
02:32AM 27.4153 -140.2080 67° East 521 600 36,000  Level FlightAware Transoceanic
02:33AM 27.4716 -140.0577 67° East 521 600 36,000  Level FlightAware Transoceanic
02:34AM 27.5278 -139.9073 67° East 521 600 36,000  Level FlightAware Transoceanic
02:35AM 27.5839 -139.7567 67° East 521 600 36,000  Level FlightAware Transoceanic
02:36AM 27.6397 -139.6060 67° East 521 600 36,000  Level FlightAware Transoceanic
02:37AM 27.6955 -139.4551 67° East 521 600 36,000  Level FlightAware Transoceanic
02:38AM 27.7510 -139.3040 67° East 521 600 36,000  Level FlightAware Transoceanic
02:39AM 27.8064 -139.1529 68° East 521 600 36,000  Level FlightAware Transoceanic
02:40AM 27.8616 -139.0015 68° East 521 600 36,000  Level FlightAware Transoceanic
02:41AM 27.9167 -138.8500 68° East 521 600 36,000  Level FlightAware Transoceanic
02:42AM 27.9710 -138.6999 68° East 521 600 36,000  Level FlightAware Transoceanic
02:43AM 28.0251 -138.5497 68° East 521 600 36,000  Level FlightAware Transoceanic
02:44AM 28.0790 -138.3993 68° East 521 600 36,000  Level FlightAware Transoceanic
02:44AM 27.9167 -138.8500 68° East 528 608 36,000  Level Oakland Oceanic (ODAPS)
02:45AM 28.1328 -138.2488 68° East 521 600 36,000  Level FlightAware Transoceanic
02:46AM 28.1865 -138.0981 68° East 521 600 36,000  Level FlightAware Transoceanic
02:47AM 28.2399 -137.9473 68° East 521 600 36,000  Level FlightAware Transoceanic
02:48AM 28.2932 -137.7963 68° East 521 600 36,000  Level FlightAware Transoceanic
02:49AM 28.3464 -137.6451 68° East 521 600 36,000  Level FlightAware Transoceanic
02:50AM 28.4636 -137.3095 68° East 528 608 36,000  Level FlightAware Transoceanic
02:51AM 28.5173 -137.1546 68° East 528 608 36,000  Level FlightAware Transoceanic
02:52AM 28.5709 -136.9995 69° East 528 608 36,000  Level FlightAware Transoceanic
02:53AM 28.6243 -136.8442 69° East 528 608 36,000  Level FlightAware Transoceanic
02:54AM 28.6775 -136.6888 69° East 528 608 36,000  Level FlightAware Transoceanic
02:55AM 28.7305 -136.5333 69° East 528 608 36,000  Level FlightAware Transoceanic
02:56AM 28.7834 -136.3776 69° East 528 608 36,000  Level FlightAware Transoceanic
02:57AM 28.8361 -136.2217 69° East 528 608 36,000  Level FlightAware Transoceanic
02:58AM 28.8886 -136.0657 69° East 528 608 36,000  Level FlightAware Transoceanic
02:59AM 28.9409 -135.9095 69° East 528 608 36,000  Level FlightAware Transoceanic
03:00AM 28.9930 -135.7532 69° East 528 608 36,000  Level FlightAware Transoceanic
03:01AM 29.0450 -135.5967 69° East 528 608 36,000  Level FlightAware Transoceanic
03:02AM 29.0967 -135.4400 69° East 528 608 36,000  Level FlightAware Transoceanic
03:03AM 29.1483 -135.2832 69° East 528 608 36,000  Level FlightAware Transoceanic
03:04AM 29.1997 -135.1262 69° East 528 608 36,000  Level FlightAware Transoceanic
03:05AM 29.2510 -134.9691 70° East 528 608 36,000  Level FlightAware Transoceanic
03:06AM 29.3020 -134.8118 70° East 528 608 36,000  Level FlightAware Transoceanic
03:07AM 29.3529 -134.6544 70° East 528 608 36,000  Level FlightAware Transoceanic
03:08AM 29.4035 -134.4968 70° East 528 608 36,000  Level FlightAware Transoceanic
03:09AM 29.4540 -134.3390 70° East 528 608 36,000  Level FlightAware Transoceanic
03:10AM 29.5043 -134.1811 70° East 528 608 36,000  Level FlightAware Transoceanic
03:11AM 29.5544 -134.0231 70° East 528 608 36,000  Level FlightAware Transoceanic
03:12AM 29.6044 -133.8648 70° East 528 608 36,000  Level FlightAware Transoceanic
03:13AM 29.6541 -133.7065 70° East 528 608 36,000  Level FlightAware Transoceanic
03:14AM 29.7036 -133.5479 70° East 528 608 36,000  Level FlightAware Transoceanic
03:15AM 29.7530 -133.3892 70° East 528 608 36,000  Level FlightAware Transoceanic
03:16AM 29.8022 -133.2304 70° East 528 608 36,000  Level FlightAware Transoceanic
03:17AM 29.8512 -133.0714 70° East 528 608 36,000  Level FlightAware Transoceanic
03:18AM 29.9000 -132.9122 71° East 528 608 36,000  Level FlightAware Transoceanic
03:19AM 29.9485 -132.7529 71° East 528 608 36,000  Level FlightAware Transoceanic
03:20AM 29.9970 -132.5934 71° East 528 608 36,000  Level FlightAware Transoceanic
03:21AM 30.0452 -132.4338 71° East 528 608 36,000  Level FlightAware Transoceanic
03:22AM 30.0932 -132.2740 71° East 528 608 36,000  Level FlightAware Transoceanic
03:23AM 30.1410 -132.1141 71° East 528 608 36,000  Level FlightAware Transoceanic
03:24AM 30.1887 -131.9540 71° East 528 608 36,000  Level FlightAware Transoceanic
03:25AM 30.2361 -131.7937 71° East 528 608 36,000  Level FlightAware Transoceanic
03:26AM 30.2833 -131.6333 71° East 528 608 36,000  Level FlightAware Transoceanic
03:27AM 30.3287 -131.4796 71° East 528 608 36,000  Level FlightAware Transoceanic
03:27AM 30.2833 -131.6333 71° East 539 620 36,000  Level Oakland Oceanic (ODAPS)
03:28AM 30.3739 -131.3258 71° East 528 608 36,000  Level FlightAware Transoceanic
03:29AM 30.4189 -131.1718 71° East 528 608 36,000  Level FlightAware Transoceanic
03:30AM 30.4637 -131.0177 71° East 528 608 36,000  Level FlightAware Transoceanic
03:31AM 30.5084 -130.8635 71° East 528 608 36,000  Level FlightAware Transoceanic
03:32AM 30.5529 -130.7091 72° East 528 608 36,000  Level FlightAware Transoceanic
03:33AM 30.6647 -130.3173 72° East 539 620 36,000  Level FlightAware Transoceanic
03:34AM 30.7114 -130.1521 72° East 539 620 36,000  Level FlightAware Transoceanic
03:35AM 30.7580 -129.9867 72° East 539 620 36,000  Level FlightAware Transoceanic
03:36AM 30.8043 -129.8211 72° East 539 620 36,000  Level FlightAware Transoceanic
03:37AM 30.8504 -129.6554 72° East 539 620 36,000  Level FlightAware Transoceanic
03:38AM 30.8963 -129.4896 72° East 539 620 36,000  Level FlightAware Transoceanic
03:39AM 30.9420 -129.3235 72° East 539 620 36,000  Level FlightAware Transoceanic
03:40AM 30.9874 -129.1574 72° East 539 620 36,000  Level FlightAware Transoceanic
03:41AM 31.0327 -128.9910 72° East 539 620 36,000  Level FlightAware Transoceanic
03:42AM 31.0777 -128.8245 73° East 539 620 36,000  Level FlightAware Transoceanic
03:43AM 31.1226 -128.6579 73° East 539 620 36,000  Level FlightAware Transoceanic
03:44AM 31.1672 -128.4911 73° East 539 620 36,000  Level FlightAware Transoceanic
03:45AM 31.2116 -128.3241 73° East 539 620 36,000  Level FlightAware Transoceanic
03:46AM 31.2558 -128.1570 73° East 539 620 36,000  Level FlightAware Transoceanic
03:47AM 31.2997 -127.9897 73° East 539 620 36,000  Level FlightAware Transoceanic
03:48AM 31.3435 -127.8222 73° East 539 620 36,000  Level FlightAware Transoceanic
03:49AM 31.3870 -127.6546 73° East 539 620 36,000  Level FlightAware Transoceanic
03:50AM 31.4304 -127.4869 73° East 539 620 36,000  Level FlightAware Transoceanic
03:51AM 31.4734 -127.3190 73° East 539 620 36,000  Level FlightAware Transoceanic
03:52AM 31.5163 -127.1509 73° East 539 620 36,000  Level FlightAware Transoceanic
03:53AM 31.5590 -126.9827 73° East 539 620 36,000  Level FlightAware Transoceanic
03:54AM 31.6014 -126.8144 74° East 539 620 36,000  Level FlightAware Transoceanic
03:55AM 31.6437 -126.6459 74° East 539 620 36,000  Level FlightAware Transoceanic
03:56AM 31.6856 -126.4772 74° East 539 620 36,000  Level FlightAware Transoceanic
03:57AM 31.7274 -126.3083 74° East 539 620 36,000  Level FlightAware Transoceanic
03:58AM 31.7690 -126.1394 74° East 539 620 36,000  Level FlightAware Transoceanic
03:59AM 31.8103 -125.9703 74° East 539 620 36,000  Level FlightAware Transoceanic
04:00AM 31.8514 -125.8010 74° East 539 620 36,000  Level FlightAware Transoceanic
04:01AM 31.8923 -125.6316 74° East 539 620 36,000  Level FlightAware Transoceanic
04:02AM 31.9329 -125.4620 74° East 539 620 36,000  Level FlightAware Transoceanic
04:03AM 31.9734 -125.2922 74° East 539 620 36,000  Level FlightAware Transoceanic
04:04AM 32.0136 -125.1224 74° East 539 620 36,000  Level FlightAware Transoceanic
04:05AM 32.0535 -124.9523 75° East 539 620 36,000  Level FlightAware Transoceanic
04:06AM 32.0933 -124.7822 75° East 539 620 36,000  Level FlightAware Transoceanic
04:07AM 32.1328 -124.6118 75° East 539 620 36,000  Level FlightAware Transoceanic
04:08AM 32.1721 -124.4414 75° East 539 620 36,000  Level FlightAware Transoceanic
04:09AM 32.2112 -124.2708 75° East 539 620 36,000  Level FlightAware Transoceanic
04:10AM 32.2500 -124.1000 77° East 539 620 36,000  Level FlightAware Transoceanic
04:11AM 32.2815 -123.9432 77° East 539 620 36,000  Level FlightAware Transoceanic
04:11AM 32.2536 -123.9711 77° East 536 617 36,000  Level Los Angeles Center
04:12AM 32.3129 -123.7862 77° East 539 620 36,000  Level FlightAware Transoceanic
04:12AM 32.2897 -123.8028 76° East 532 612 36,000  Level Los Angeles Center
04:13AM 32.3440 -123.6292 77° East 539 620 36,000  Level FlightAware Transoceanic
04:13AM 32.3272 -123.6328 75° East 534 615 36,000  Level Los Angeles Center
04:14AM 32.3750 -123.4721 77° East 539 620 36,000 960 Level FlightAware Transoceanic
04:14AM 32.3656 -123.4642 75° East 534 615 37,000  Climbing Los Angeles Center
04:15AM 32.4057 -123.3148 77° East 539 620 36,000  Descending FlightAware Transoceanic
04:15AM 32.4047 -123.2972 74° East 532 612 37,000  Climbing Los Angeles Center
04:16AM 32.4363 -123.1575 77° East 539 620 36,000  Descending FlightAware Transoceanic
04:16AM 32.4408 -123.1281 76° East 532 612 37,000 840 Climbing Los Angeles Center
04:17AM 32.4767 -122.9589 76° East 532 612 37,000  Level Los Angeles Center
04:18AM 32.5133 -122.7906 75° East 531 611 37,000  Level Los Angeles Center
04:19AM 32.5500 -122.6244 75° East 529 609 37,000  Level Los Angeles Center
04:20AM 32.5933 -122.4236 76° East 527 606 37,000  Level Los Angeles Center
04:25AM 32.7900 -121.5640 76° East 527 606 37,000  Level FlightAware
04:26AM 32.8120 -121.4590 76° East 527 606 37,000  Level FlightAware
04:27AM 32.8350 -121.3490 76° East 527 606 37,000  Level FlightAware
04:29AM 32.8860 -121.1050 76° East 527 606 37,000  Level FlightAware
04:29AM 32.9300 -120.8720 77° East 526 605 37,000  Level FlightAware
04:30AM 32.9620 -120.7050 77° East 525 604 37,000  Level FlightAware
04:31AM 32.9920 -120.5520 77° East 525 604 37,000  Level FlightAware
04:32AM 33.0260 -120.3800 77° East 526 605 37,000  Level FlightAware
04:33AM 33.0500 -120.2570 77° East 526 605 37,000  Level FlightAware
04:33AM 33.0710 -120.1440 77° East 526 605 37,000  Level FlightAware
04:34AM 33.0950 -120.0220 77° East 525 604 37,000  Level FlightAware
04:35AM 33.1170 -119.9030 78° East 525 604 37,000  Level FlightAware
04:36AM 33.1490 -119.7320 77° East 525 604 37,000  Level FlightAware
04:37AM 33.1770 -119.5840 77° East 525 604 37,000  Level FlightAware
04:37AM 33.1970 -119.4740 78° East 526 605 37,000  Level FlightAware
04:38AM 33.2190 -119.3580 77° East 526 605 37,000  Level FlightAware
04:39AM 33.2430 -119.2240 78° East 527 606 37,000  Level FlightAware
04:39AM 33.2640 -119.1080 78° East 527 606 37,000  Level FlightAware
04:40AM 33.2830 -119.0040 78° East 528 608 37,000  Level FlightAware
04:41AM 33.3070 -118.8690 78° East 528 608 37,000  Level FlightAware
04:42AM 33.3320 -118.7320 78° East 528 608 37,000  Level FlightAware
04:42AM 33.3580 -118.5850 78° East 528 608 37,000  Level FlightAware
04:43AM 33.3780 -118.4720 78° East 527 606 37,000  Level FlightAware
04:44AM 33.3970 -118.3570 79° East 528 608 37,000  Level FlightAware
04:45AM 33.4140 -118.2260 81° East 528 608 37,000  Level FlightAware
04:45AM 33.4340 -118.0700 81° East 529 609 37,000  Level FlightAware
04:46AM 33.4490 -117.9540 81° East 529 609 37,000  Level FlightAware
04:47AM 33.4670 -117.8190 81° East 529 609 37,000  Level FlightAware
04:48AM 33.4820 -117.7050 81° East 530 610 37,000  Level FlightAware
04:48AM 33.4990 -117.5760 81° East 531 611 37,000  Level FlightAware
04:49AM 33.5130 -117.4640 81° East 532 612 37,000  Level FlightAware
04:50AM 33.5300 -117.3360 81° East 533 613 37,000  Level FlightAware
04:51AM 33.5540 -117.1450 81° East 532 612 37,000  Level FlightAware
04:52AM 33.5680 -117.0090 83° East 533 613 37,000  Level FlightAware
04:52AM 33.5770 -116.8860 85° East 534 615 37,000  Level FlightAware
04:53AM 33.5840 -116.7620 86° East 534 615 37,000  Level FlightAware
04:54AM 33.5900 -116.6330 87° East 534 615 37,000  Level FlightAware
04:54AM 33.5960 -116.5140 87° East 534 615 37,000  Level FlightAware
04:55AM 33.5990 -116.4560 86° East 534 615 37,000  Level FlightAware
04:56AM 33.6100 -116.2090 87° East 531 611 37,000  Level FlightAware
04:57AM 33.6180 -116.0560 86° East 531 611 37,000  Level FlightAware
04:58AM 33.6250 -115.9410 86° East 531 611 37,000  Level FlightAware
04:58AM 33.6280 -115.8070 88° East 533 613 37,000  Level FlightAware
04:59AM 33.6340 -115.6810 87° East 533 613 37,000  Level FlightAware
05:00AM 33.6380 -115.5910 87° East 533 613 37,000  Level FlightAware
05:01AM 33.6430 -115.4750 87° East 533 613 37,000  Level FlightAware
05:01AM 33.6470 -115.3820 87° East 533 613 37,000  Level FlightAware
05:02AM 33.6520 -115.2610 87° East 533 613 37,000  Level FlightAware
05:03AM 33.6570 -115.1460 87° East 533 613 37,000  Level FlightAware
05:03AM 33.6610 -115.0450 87° East 533 613 37,000  Level FlightAware
05:04AM 33.6660 -114.8610 88° East 536 617 37,000  Level FlightAware
05:05AM 33.6710 -114.7000 88° East 536 617 37,000  Level FlightAware
05:06AM 33.6740 -114.6400 87° East 536 617 37,000  Level FlightAware
05:07AM 33.6840 -114.3190 88° East 534 615 37,000  Level FlightAware
05:08AM 33.6880 -114.1710 88° East 534 615 37,000  Level FlightAware
05:09AM 33.6940 -113.9810 88° East 532 612 37,000  Level FlightAware
05:09AM 33.6980 -113.8510 88° East 532 612 37,000  Level FlightAware
05:10AM 33.7000 -113.7550 89° East 532 612 37,000  Level FlightAware
05:11AM 33.7050 -113.5780 88° East 531 611 37,000  Level FlightAware
05:12AM 33.7080 -113.4630 88° East 529 609 37,000  Level FlightAware
05:12AM 33.7110 -113.3240 88° East 529 609 37,000  Level FlightAware
05:13AM 33.7140 -113.1980 88° East 529 609 37,000  Level FlightAware
05:14AM 33.7170 -113.0860 88° East 530 610 37,000  Level FlightAware
05:14AM 33.7190 -112.9580 89° East 530 610 37,000  Level FlightAware
05:15AM 33.7230 -112.7940 88° East 528 608 37,000  Level FlightAware
05:16AM 33.7250 -112.6590 89° East 525 604 37,000  Level FlightAware
05:17AM 33.7260 -112.5910 89° East 524 603 37,000  Level FlightAware
05:17AM 33.7280 -112.4730 89° East 524 603 37,000  Level FlightAware
05:18AM 33.7300 -112.3460 89° East 523 602 37,000  Level FlightAware
05:19AM 33.7320 -112.2290 89° East 523 602 37,000  Level FlightAware
05:19AM 33.7340 -112.0970 89° East 522 601 37,000  Level FlightAware
05:20AM 33.7360 -111.9820 89° East 521 600 37,000  Level FlightAware
05:21AM 33.7370 -111.8670 89° East 521 600 37,000  Level FlightAware
05:21AM 33.7390 -111.7380 89° East 519 597 37,000  Level FlightAware
05:22AM 33.7400 -111.6330 89° East 519 597 37,000  Level FlightAware
05:23AM 33.7420 -111.4880 89° East 518 596 37,000  Level FlightAware
05:24AM 33.7430 -111.3760 89° East 517 595 37,000  Level FlightAware
05:24AM 33.7440 -111.2590 89° East 516 594 37,000  Level FlightAware
05:25AM 33.7450 -111.1340 89° East 515 593 37,000  Level FlightAware
05:26AM 33.7460 -110.9350 90° East 516 594 37,000  Level FlightAware
05:27AM 33.7470 -110.8070 89° East 516 594 37,000  Level FlightAware
05:27AM 33.7470 -110.7060 90° East 517 595 37,000  Level FlightAware
05:28AM 33.7470 -110.6230 90° East 518 596 37,000  Level FlightAware
05:29AM 33.7480 -110.4500 90° East 519 597 37,000  Level FlightAware
05:30AM 33.7480 -110.3120 90° East 521 600 37,000  Level FlightAware
05:31AM 33.7480 -110.1720 90° East 520 598 37,000  Level FlightAware
05:31AM 33.7480 -110.0530 90° East 519 597 37,000  Level FlightAware
05:32AM 33.7480 -109.9550 90° East 519 597 37,000  Level FlightAware
05:33AM 33.7480 -109.8670 90° East 519 597 37,000  Level FlightAware
05:33AM 33.7470 -109.7210 90° East 520 598 37,000  Level FlightAware
05:34AM 33.7470 -109.6280 90° East 520 598 37,000  Level FlightAware
05:35AM 33.7470 -109.5370 90° East 520 598 37,000  Level FlightAware
05:36AM 33.7470 -109.4090 90° East 520 598 37,000  Level FlightAware
05:36AM 33.7470 -109.3200 90° East 520 598 37,000  Level FlightAware
05:37AM 33.7470 -109.2000 90° East 520 598 37,000  Level FlightAware
05:38AM 33.7470 -109.1110 90° East 520 598 37,000  Level FlightAware
05:38AM 33.7470 -108.9930 90° East 520 598 37,000  Level FlightAware
05:39AM 33.7470 -108.9000 90° East 520 598 37,000  Level FlightAware
05:40AM 33.7470 -108.8110 90° East 520 598 37,000  Level FlightAware
05:40AM 33.7470 -108.7110 90° East 520 598 37,000  Level FlightAware
05:41AM 33.7470 -108.5950 90° East 520 598 37,000  Level FlightAware
05:42AM 33.7470 -108.5010 90° East 520 598 37,000  Level FlightAware
05:43AM 33.7470 -108.3860 90° East 520 598 37,000  Level FlightAware
05:43AM 33.7470 -108.2730 90° East 520 598 37,000  Level FlightAware
05:44AM 33.7206 -107.8517 90° East 515 593 37,000  Level Albuquerque Center
05:45AM 33.7169 -107.6786 91° East 518 596 37,000  Level Albuquerque Center
05:46AM 33.7139 -107.5056 91° East 518 596 37,000  Level Albuquerque Center
05:47AM 33.7092 -107.3350 92° East 513 590 37,000  Level Albuquerque Center
05:48AM 33.7056 -107.1622 91° East 514 592 37,000  Level Albuquerque Center
05:49AM 33.7014 -106.9892 92° East 517 595 37,000  Level Albuquerque Center
05:50AM 33.6961 -106.8161 92° East 518 596 37,000  Level Albuquerque Center
05:51AM 33.6911 -106.6431 92° East 517 595 37,000  Level Albuquerque Center
05:52AM 33.6861 -106.4714 92° East 515 593 37,000  Level Albuquerque Center
05:53AM 33.6808 -106.3011 92° East 513 590 37,000  Level Albuquerque Center
05:54AM 33.6750 -106.1314 92° East 509 586 37,000  Level Albuquerque Center
05:55AM 33.6697 -105.9647 92° East 503 579 37,000  Level Albuquerque Center
05:56AM 33.6644 -105.7964 92° East 504 580 37,000  Level Albuquerque Center
05:57AM 33.6583 -105.6308 92° East 500 575 37,000  Level Albuquerque Center
05:58AM 33.6494 -105.4292 93° East 503 579 37,000  Level Albuquerque Center
05:59AM 33.6439 -105.2619 92° East 503 579 37,000  Level Albuquerque Center
06:00AM 33.6361 -105.0956 93° East 501 577 37,000  Level Albuquerque Center
06:01AM 33.6294 -104.9289 93° East 501 577 37,000  Level Albuquerque Center
06:02AM 33.6228 -104.7617 93° East 503 579 37,000  Level Albuquerque Center
06:03AM 33.6150 -104.5947 93° East 501 577 37,000  Level Albuquerque Center
06:04AM 33.6083 -104.4256 93° East 505 581 37,000  Level Albuquerque Center
06:05AM 33.5997 -104.2583 93° East 503 579 37,000  Level Albuquerque Center
06:06AM 33.5925 -104.0917 93° East 501 577 37,000  Level Albuquerque Center
06:07AM 33.5831 -103.9247 94° East 501 577 37,000  Level Albuquerque Center
06:08AM 33.5756 -103.7578 93° East 502 578 37,000  Level Albuquerque Center
06:09AM 33.5681 -103.6247 94° East 504 580 37,000  Level Albuquerque Center
06:10AM 33.5578 -103.4203 93° East 508 585 37,000  Level Albuquerque Center
06:16AM 33.5120 -102.4390 93° East 516 594 37,000  Level FlightAware
06:17AM 33.5050 -102.3200 94° East 516 594 37,000  Level FlightAware
06:17AM 33.5000 -102.2310 94° East 516 594 37,000  Level FlightAware
06:18AM 33.4950 -102.1430 94° East 516 594 37,000  Level FlightAware
06:19AM 33.4880 -102.0220 94° East 516 594 37,000  Level FlightAware
06:19AM 33.4830 -101.9350 94° East 516 594 37,000  Level FlightAware
06:21AM 33.4720 -101.7600 94° East 516 594 37,000  Level FlightAware
06:21AM 33.4660 -101.6430 93° East 516 594 37,000  Level FlightAware
06:22AM 33.4600 -101.5510 94° East 516 594 37,000  Level FlightAware
06:23AM 33.4550 -101.4640 94° East 516 594 37,000  Level FlightAware
06:23AM 33.4480 -101.3470 94° East 516 594 37,000  Level FlightAware
06:25AM 33.4400 -101.1990 94° East 516 594 37,000  Level FlightAware
06:25AM 33.4330 -101.0780 94° East 516 594 37,000  Level FlightAware
06:26AM 33.4280 -100.9910 94° East 516 594 37,000 -60 Level FlightAware
06:31AM 33.3160 -99.8100 96° East 514 592 36,900 -120 Descending FlightAware
06:32AM 33.3050 -99.6820 96° East 513 590 36,300 -840 Descending FlightAware
06:33AM 33.2960 -99.5780 96° East 508 585 35,800 -840 Descending FlightAware
06:33AM 33.2860 -99.4670 96° East 503 579 35,200 -1,200 Descending FlightAware
06:34AM 33.2750 -99.3360 96° East 505 581 34,100 -1,080 Descending FlightAware
06:35AM 33.2660 -99.2280 96° East 506 582 33,600 -300 Descending FlightAware
06:36AM 33.2560 -99.0920 95° East 506 582 33,600  Level FlightAware
06:37AM 33.2490 -99.0020 95° East 506 582 33,600  Level FlightAware
06:37AM 33.2430 -98.9170 95° East 506 582 33,600  Level FlightAware
06:38AM 33.2350 -98.8010 95° East 506 582 33,600  Level FlightAware
06:39AM 33.2280 -98.7160 96° East 506 582 33,600  Level FlightAware
06:39AM 33.2200 -98.5990 95° East 506 582 33,600  Level FlightAware
06:40AM 33.2140 -98.5140 95° East 506 582 33,600  Level FlightAware
06:41AM 33.2060 -98.4170 96° East 506 582 33,600 -10,200 Level FlightAware
06:41AM 33.1670 -98.2070 102° East 436 502 18,300 -10,800 Descending FlightAware
06:42AM 33.1600 -98.1340 97° East 436 502 18,300  Level FlightAware
06:43AM 33.1500 -98.0360 97° East 436 502 18,300 -4,380 Level FlightAware
06:44AM 33.1380 -97.9160 97° East 392 451 11,900 -5,640 Descending FlightAware
06:44AM 33.1300 -97.8390 97° East 390 449 11,000 -900 Descending FlightAware
06:46AM 33.1130 -97.6710 97° East 322 371 10,100 -660 Descending FlightAware
06:46AM 33.1100 -97.6460 98° East 315 362 9,900 -1,080 Descending FlightAware
06:46AM 33.1050 -97.5940 97° East 304 350 9,300 -1,140 Descending FlightAware
06:47AM 33.0980 -97.5480 100° East 296 341 8,800 -1,200 Descending FlightAware
06:47AM 33.0910 -97.4980 99° East 296 341 8,100 -1,320 Descending FlightAware
06:48AM 33.0890 -97.4570 93° East 294 338 7,600 -1,320 Descending FlightAware
06:48AM 33.0870 -97.4170 93° East 292 336 7,000 -1,380 Descending FlightAware
06:49AM 33.0820 -97.3640 96° East 285 328 6,300 -1,320 Descending FlightAware
06:49AM 33.0780 -97.3220 96° East 283 326 5,700 -1,080 Descending FlightAware
06:50AM 33.0740 -97.2800 96° East 272 313 5,300 -1,020 Descending FlightAware
06:51AM 33.0580 -97.1770 100° East 259 298 4,000 -960 Descending FlightAware
06:51AM 33.0540 -97.1500 100° East 242 278 3,900 -360 Descending FlightAware
06:52AM 33.0500 -97.1040 96° East 211 243 3,700 -540 Descending FlightAware
06:52AM 33.0440 -97.0780 105° East 179 206 3,400 -1,200 Descending FlightAware
06:52AM 33.0360 -97.0660 128° Southeast 177 204 2,900 -1,380 Descending FlightAware
06:53AM 33.0180 -97.0530 149° Southeast 161 185 2,400 -960 Descending FlightAware
06:53AM 32.9980 -97.0470 166° South 140 161 2,000 -780 Descending FlightAware
06:54AM 32.9820 -97.0480 183° South 129 148 1,700 -420 Descending FlightAware
06:54AM 32.9620 -97.0480 180° South 121 139 1,600 -180 Descending FlightAware